Time;durP1;ratioP1;P1;durP2;ratioP2;P2;SDS_P1;SDS_P2;PMS_P1;PMS_P2;Temp;Humidity;BMP_temperature;BMP_pressure;BME280_temperature;BME280_humidity;BME280_pressure;Samples;Min_cycle;Max_cycle;Signal;HPM_P1;HPM_P2
2023/08/28 00:02:22;;;;;;;3.17;1.30;;;;;;;18.92;76.11;99541.13;4922564;28;20499;-84
2023/08/28 00:04:49;;;;;;;3.17;2.20;;;;;;;18.90;76.28;99537.78;4952669;28;20058;-83
2023/08/28 00:07:15;;;;;;;3.05;1.70;;;;;;;18.90;76.31;99532.41;4952520;28;20094;-83
2023/08/28 00:09:42;;;;;;;2.70;1.90;;;;;;;18.87;76.41;99520.19;4926055;28;20414;-84
2023/08/28 00:12:09;;;;;;;4.70;1.30;;;;;;;18.86;77.01;99521.22;4911930;28;20495;-83
2023/08/28 00:14:36;;;;;;;6.40;1.67;;;;;;;18.84;76.73;99512.50;4902403;28;20119;-84
2023/08/28 00:17:05;;;;;;;4.03;2.00;;;;;;;18.83;76.71;99508.19;4934440;28;20379;-84
2023/08/28 00:19:32;;;;;;;4.53;2.13;;;;;;;18.81;76.81;99497.59;4911395;28;20184;-85
2023/08/28 00:21:58;;;;;;;3.58;1.60;;;;;;;18.82;77.05;99501.94;4912793;28;20089;-83
2023/08/28 00:24:25;;;;;;;4.47;2.08;;;;;;;18.82;77.29;99499.25;4906811;28;20420;-84
2023/08/28 00:26:52;;;;;;;4.72;2.15;;;;;;;18.81;77.18;99494.91;4941735;28;20143;-84
2023/08/28 00:29:19;;;;;;;3.72;1.92;;;;;;;18.80;76.85;99492.41;4910934;28;20513;-84
2023/08/28 00:31:47;;;;;;;5.13;2.17;;;;;;;18.80;77.05;99498.66;4903352;29;20047;-84
2023/08/28 00:34:14;;;;;;;4.45;1.90;;;;;;;18.76;77.13;99488.47;4928085;28;20047;-83
2023/08/28 00:36:42;;;;;;;4.90;2.03;;;;;;;18.77;77.21;99482.88;4915762;28;20095;-84
2023/08/28 00:39:09;;;;;;;4.47;2.10;;;;;;;18.72;77.11;99458.41;4911350;28;20118;-84
2023/08/28 00:41:36;;;;;;;4.32;2.00;;;;;;;18.74;77.20;99469.78;4904992;28;20063;-84
2023/08/28 00:44:03;;;;;;;2.97;1.52;;;;;;;18.72;77.12;99477.22;4933437;28;20047;-84
2023/08/28 00:46:30;;;;;;;4.60;1.85;;;;;;;18.73;77.37;99488.84;4920231;28;20051;-84
2023/08/28 00:48:57;;;;;;;3.10;1.75;;;;;;;18.73;77.37;99494.22;4945927;28;20395;-85
2023/08/28 00:51:25;;;;;;;5.00;1.90;;;;;;;18.71;77.43;99491.72;4935598;28;20071;-84
2023/08/28 00:53:52;;;;;;;4.45;2.00;;;;;;;18.71;77.64;99474.75;4900076;28;20152;-84
2023/08/28 00:56:19;;;;;;;5.20;2.10;;;;;;;18.69;77.79;99466.03;4934622;28;20130;-84
2023/08/28 00:58:46;;;;;;;4.35;1.88;;;;;;;18.69;77.71;99469.56;4951906;28;20074;-83
2023/08/28 01:01:13;;;;;;;4.43;1.80;;;;;;;18.71;77.50;99482.81;4948136;28;20080;-83
2023/08/28 01:03:40;;;;;;;4.68;1.95;;;;;;;18.68;77.71;99488.59;4927274;28;20943;-84
2023/08/28 01:06:18;;;;;;;6.07;2.13;;;;;;;18.70;78.15;99497.28;4911213;28;20602;-83
2023/08/28 01:08:55;;;;;;;5.63;2.00;;;;;;;18.64;78.51;99510.47;4892499;28;20681;-84
2023/08/28 01:11:30;;;;;;;4.32;2.47;;;;;;;18.65;78.43;99517.53;4927941;28;20055;-84
2023/08/28 01:14:17;;;;;;;4.25;1.90;;;;;;;18.66;78.66;99513.00;4943569;28;20507;-83
2023/08/28 01:16:45;;;;;;;3.17;2.10;;;;;;;18.67;78.50;99501.19;4921843;28;20407;-84
2023/08/28 01:19:29;;;;;;;4.32;1.67;;;;;;;18.58;78.50;99505.91;4943953;28;20056;-84
2023/08/28 01:22:22;;;;;;;3.20;1.90;;;;;;;18.61;78.40;99507.38;4937050;28;20126;-83
2023/08/28 01:24:50;;;;;;;3.75;1.92;;;;;;;18.63;78.50;99519.59;4938737;28;20404;-83
2023/08/28 01:27:18;;;;;;;5.38;1.90;;;;;;;18.62;78.13;99509.00;4932968;28;20043;-84
2023/08/28 01:29:45;;;;;;;5.38;2.10;;;;;;;18.59;78.14;99504.84;4943072;28;20075;-84
2023/08/28 01:32:12;;;;;;;6.70;2.15;;;;;;;18.60;78.26;99511.09;4924565;28;20047;-83
2023/08/28 01:34:39;;;;;;;4.13;2.13;;;;;;;18.61;78.34;99510.88;4926769;29;20054;-83
2023/08/28 01:37:12;;;;;;;4.70;2.30;;;;;;;18.55;78.73;99514.38;4926959;28;20086;-84
2023/08/28 01:39:46;;;;;;;4.22;2.20;;;;;;;18.55;78.62;99517.06;4929732;28;20388;-84
2023/08/28 01:42:14;;;;;;;5.07;2.10;;;;;;;18.55;78.67;99513.53;4931818;28;20094;-84
2023/08/28 01:44:41;;;;;;;2.53;2.20;;;;;;;18.56;78.68;99520.56;4930388;28;20419;-84
2023/08/28 01:47:09;;;;;;;3.10;2.10;;;;;;;18.57;78.45;99524.91;4930944;28;20047;-84
2023/08/28 01:49:36;;;;;;;7.43;2.30;;;;;;;18.58;78.46;99535.47;4922181;29;20047;-84
2023/08/28 01:52:03;;;;;;;4.45;2.55;;;;;;;18.57;78.48;99538.34;4911084;28;20047;-84
2023/08/28 01:54:30;;;;;;;3.45;2.17;;;;;;;18.53;78.71;99535.22;4928562;28;20059;-84
2023/08/28 01:56:56;;;;;;;3.67;2.20;;;;;;;18.55;78.73;99535.88;4947570;28;20455;-84
2023/08/28 01:59:23;;;;;;;3.67;2.05;;;;;;;18.53;79.13;99527.16;4938076;28;20414;-84
2023/08/28 02:01:50;;;;;;;5.97;2.47;;;;;;;18.54;78.93;99526.13;4911915;28;20055;-84
2023/08/28 02:04:17;;;;;;;3.63;2.40;;;;;;;18.54;78.83;99517.22;4927397;28;20098;-84
2023/08/28 02:06:44;;;;;;;3.40;2.13;;;;;;;18.54;78.57;99523.44;4895291;28;20043;-84
2023/08/28 02:09:11;;;;;;;2.25;2.05;;;;;;;18.50;78.76;99524.88;4944259;28;20047;-84
2023/08/28 02:11:38;;;;;;;3.03;2.20;;;;;;;18.51;78.61;99525.69;4912414;28;20044;-84
2023/08/28 02:14:05;;;;;;;3.17;2.30;;;;;;;18.49;78.69;99515.13;4928231;28;20052;-84
2023/08/28 02:16:33;;;;;;;6.07;2.53;;;;;;;18.50;78.83;99521.34;4901636;29;20063;-84
2023/08/28 02:19:00;;;;;;;3.80;2.22;;;;;;;18.50;79.03;99527.56;4910847;28;20138;-83
2023/08/28 02:21:27;;;;;;;6.47;2.58;;;;;;;18.51;79.27;99531.06;4926557;28;20055;-84
2023/08/28 02:23:54;;;;;;;6.50;3.28;;;;;;;18.51;79.07;99523.00;4926455;28;20389;-84
2023/08/28 02:26:21;;;;;;;5.78;3.28;;;;;;;18.49;79.01;99514.28;4938435;28;20435;-84
2023/08/28 02:28:48;;;;;;;4.28;2.65;;;;;;;18.49;79.23;99511.59;4927922;28;20375;-84
2023/08/28 02:31:16;;;;;;;4.32;2.30;;;;;;;18.49;79.37;99504.38;4909429;28;20053;-84
2023/08/28 02:33:44;;;;;;;2.58;2.38;;;;;;;18.50;79.55;99499.84;4927521;28;20040;-84
2023/08/28 02:36:13;;;;;;;5.50;2.60;;;;;;;18.48;79.48;99489.28;4955687;28;20059;-84
2023/08/28 02:38:40;;;;;;;3.30;2.70;;;;;;;18.47;78.81;99484.09;4926527;28;20599;-84
2023/08/28 02:41:07;;;;;;;3.15;2.78;;;;;;;18.44;79.12;99483.47;4929630;28;20059;-84
2023/08/28 02:43:36;;;;;;;5.00;3.13;;;;;;;18.43;78.99;99475.59;4936316;28;20051;-84
2023/08/28 02:46:03;;;;;;;5.30;2.13;;;;;;;18.39;78.95;99466.25;4928692;28;20079;-84
2023/08/28 02:48:30;;;;;;;3.95;2.90;;;;;;;18.38;78.73;99459.22;4910768;28;20063;-84
2023/08/28 02:50:58;;;;;;;4.88;2.35;;;;;;;18.36;78.82;99456.72;4929616;28;20163;-83
2023/08/28 02:53:25;;;;;;;4.60;2.00;;;;;;;18.35;78.70;99449.69;4915192;28;20460;-83
2023/08/28 02:56:16;;;;;;;3.28;2.35;;;;;;;18.28;78.84;99448.81;4923235;28;20498;-85
2023/08/28 02:58:43;;;;;;;3.33;2.28;;;;;;;18.33;78.81;99448.22;4922540;28;20047;-84
2023/08/28 03:01:10;;;;;;;3.88;2.00;;;;;;;18.31;78.42;99434.97;4941831;28;20440;-83
2023/08/28 03:03:37;;;;;;;3.40;2.70;;;;;;;18.32;78.48;99439.34;4913153;28;20051;-84
2023/08/28 03:06:04;;;;;;;4.32;2.28;;;;;;;18.30;78.62;99427.13;4936504;28;20051;-84
2023/08/28 03:08:31;;;;;;;4.20;2.15;;;;;;;18.30;78.59;99438.69;4913162;28;20464;-84
2023/08/28 03:10:58;;;;;;;5.60;2.10;;;;;;;18.29;78.78;99436.19;4938751;28;20071;-84
2023/08/28 03:13:25;;;;;;;4.72;2.17;;;;;;;18.29;78.90;99434.31;4912512;29;20126;-84
2023/08/28 03:15:52;;;;;;;4.63;2.10;;;;;;;18.28;79.03;99440.72;4938250;28;20137;-84
2023/08/28 03:18:19;;;;;;;5.65;2.55;;;;;;;18.27;78.83;99448.97;4943887;28;20709;-84
2023/08/28 03:20:46;;;;;;;5.60;2.15;;;;;;;18.27;78.73;99449.84;4918481;28;20059;-85
2023/08/28 03:23:13;;;;;;;4.38;2.55;;;;;;;18.25;78.90;99454.56;4895730;28;20520;-85
2023/08/28 03:25:40;;;;;;;2.17;1.98;;;;;;;18.25;78.59;99454.56;4892633;28;20059;-84
2023/08/28 03:28:07;;;;;;;10.02;2.33;;;;;;;18.22;78.76;99446.91;4940372;28;20058;-84
2023/08/28 03:30:34;;;;;;;3.35;1.88;;;;;;;18.20;78.59;99457.84;4902362;28;20044;-85
2023/08/28 03:33:01;;;;;;;6.35;2.22;;;;;;;18.18;78.59;99456.38;4923845;28;20051;-84
2023/08/28 03:35:30;;;;;;;4.22;2.30;;;;;;;18.18;78.56;99448.31;4925769;28;20058;-84
2023/08/28 03:37:57;;;;;;;2.50;2.20;;;;;;;18.17;78.34;99438.59;4926837;28;20067;-84
2023/08/28 03:40:24;;;;;;;5.68;2.08;;;;;;;18.15;78.50;99429.88;4925640;29;20043;-85
2023/08/28 03:42:51;;;;;;;5.32;2.13;;;;;;;18.13;78.49;99432.75;4939077;28;20048;-84
2023/08/28 03:45:18;;;;;;;3.88;2.35;;;;;;;18.12;78.13;99433.78;4915248;28;20055;-84
2023/08/28 03:47:44;;;;;;;4.43;1.83;;;;;;;18.13;78.40;99438.13;4924105;28;20060;-84
2023/08/28 03:50:11;;;;;;;3.97;2.03;;;;;;;18.13;77.97;99431.94;4909623;28;20094;-84
2023/08/28 03:52:38;;;;;;;2.17;1.98;;;;;;;18.10;78.03;99435.00;4919785;28;20040;-84
2023/08/28 03:55:05;;;;;;;2.35;1.45;;;;;;;18.10;78.15;99435.00;4894981;28;20055;-84
2023/08/28 03:57:34;;;;;;;2.63;1.70;;;;;;;18.09;77.96;99441.41;4913369;28;20127;-84
2023/08/28 04:00:05;;;;;;;6.82;1.95;;;;;;;18.06;77.81;99444.47;4922528;28;20043;-84
2023/08/28 04:02:40;;;;;;;6.05;1.70;;;;;;;18.06;77.95;99452.53;4912351;28;20440;-84
2023/08/28 04:05:07;;;;;;;5.88;1.80;;;;;;;18.05;77.50;99449.03;4943409;28;20053;-84
2023/08/28 04:07:34;;;;;;;5.40;1.83;;;;;;;18.07;77.59;99455.03;4926906;28;20125;-84
2023/08/28 04:10:01;;;;;;;1.70;1.60;;;;;;;18.04;77.69;99452.75;4910548;28;20496;-84
2023/08/28 04:12:31;;;;;;;2.90;1.60;;;;;;;18.04;77.84;99447.38;4920191;28;20045;-84
2023/08/28 04:14:58;;;;;;;5.45;2.83;;;;;;;18.03;77.81;99442.19;4895041;28;20102;-83
2023/08/28 04:17:25;;;;;;;3.70;2.08;;;;;;;18.04;78.07;99447.38;4906919;28;20047;-83
2023/08/28 04:19:54;;;;;;;6.03;2.15;;;;;;;18.03;78.15;99450.25;4905152;28;20051;-83
2023/08/28 04:22:21;;;;;;;4.68;2.30;;;;;;;18.03;78.24;99444.88;4933654;28;20043;-83
2023/08/28 04:24:51;;;;;;;4.68;2.00;;;;;;;18.00;78.35;99454.16;4910822;28;20052;-83
2023/08/28 04:27:18;;;;;;;6.38;1.65;;;;;;;17.99;78.19;99447.94;4923736;28;20051;-84
2023/08/28 04:29:45;;;;;;;3.38;1.75;;;;;;;17.98;78.40;99451.66;4938762;28;20048;-83
2023/08/28 04:32:12;;;;;;;5.03;1.85;;;;;;;17.97;78.22;99455.38;4916233;28;20047;-83
2023/08/28 04:34:39;;;;;;;3.65;2.00;;;;;;;17.96;78.41;99444.81;4895179;28;20099;-83
2023/08/28 04:37:06;;;;;;;5.32;1.90;;;;;;;17.95;78.43;99452.03;4938866;28;20475;-83
2023/08/28 04:39:33;;;;;;;4.82;1.90;;;;;;;17.95;78.46;99457.41;4919837;29;20083;-83
2023/08/28 04:41:59;;;;;;;3.40;1.75;;;;;;;17.96;78.59;99460.91;4920080;28;20058;-83
2023/08/28 04:44:26;;;;;;;4.78;1.70;;;;;;;17.95;78.73;99459.28;4912911;28;20491;-83
2023/08/28 04:46:54;;;;;;;4.95;2.13;;;;;;;17.93;78.50;99464.00;4940358;28;20073;-83
2023/08/28 04:49:20;;;;;;;6.95;2.25;;;;;;;17.95;78.67;99461.97;4921678;28;20048;-83
2023/08/28 04:51:48;;;;;;;6.53;1.73;;;;;;;17.94;78.66;99458.44;4937257;28;20047;-83
2023/08/28 04:54:14;;;;;;;4.75;2.10;;;;;;;17.95;78.43;99453.91;4923570;28;20051;-83
2023/08/28 04:56:41;;;;;;;2.70;1.75;;;;;;;17.93;78.64;99440.66;4934953;28;20070;-83
2023/08/28 04:59:08;;;;;;;6.05;1.70;;;;;;;17.93;78.60;99442.50;4916228;28;20146;-83
2023/08/28 05:01:35;;;;;;;2.15;1.80;;;;;;;17.92;78.54;99443.53;4947256;28;20042;-83
2023/08/28 05:04:02;;;;;;;4.47;2.00;;;;;;;17.92;78.54;99449.75;4922830;28;20066;-83
2023/08/28 05:06:29;;;;;;;7.03;1.98;;;;;;;17.92;78.92;99460.50;4947610;28;20048;-83
2023/08/28 05:08:55;;;;;;;3.38;2.50;;;;;;;17.91;78.82;99448.09;4909400;28;20813;-83
2023/08/28 05:11:23;;;;;;;5.68;2.00;;;;;;;17.92;78.82;99446.22;4907659;28;20048;-83
2023/08/28 05:13:52;;;;;;;3.28;1.92;;;;;;;17.91;78.93;99444.56;4926417;28;20434;-83
2023/08/28 05:16:18;;;;;;;4.85;2.00;;;;;;;17.92;79.12;99446.22;4918540;28;20192;-83
2023/08/28 05:18:46;;;;;;;3.30;1.88;;;;;;;17.91;78.94;99445.41;4921683;28;20047;-83
2023/08/28 05:21:12;;;;;;;4.50;2.10;;;;;;;17.89;79.03;99443.94;4924536;28;20099;-83
2023/08/28 05:23:39;;;;;;;2.92;1.80;;;;;;;17.87;79.03;99441.44;4921962;28;20055;-83
2023/08/28 05:26:06;;;;;;;3.33;1.98;;;;;;;17.86;78.84;99445.16;4928452;28;20142;-83
2023/08/28 05:28:37;;;;;;;2.30;1.92;;;;;;;17.85;78.44;99442.66;4951131;28;20047;-83
2023/08/28 05:31:04;;;;;;;3.00;1.85;;;;;;;17.85;78.54;99443.47;4907592;28;20150;-83
2023/08/28 05:33:32;;;;;;;4.75;2.30;;;;;;;17.86;78.49;99442.47;4918507;28;20079;-83
2023/08/28 05:35:58;;;;;;;3.10;2.33;;;;;;;17.83;78.41;99442.81;4923290;28;20058;-84
2023/08/28 05:38:26;;;;;;;5.47;1.90;;;;;;;17.82;78.29;99441.19;4937564;28;20099;-84
2023/08/28 05:40:53;;;;;;;4.82;2.05;;;;;;;17.81;78.57;99452.97;4919003;28;20126;-84
2023/08/28 05:43:19;;;;;;;5.00;2.15;;;;;;;17.84;78.82;99449.88;4939740;28;20135;-84
2023/08/28 05:45:47;;;;;;;6.00;1.67;;;;;;;17.83;78.63;99456.25;4928609;28;20602;-84
2023/08/28 05:48:14;;;;;;;4.70;1.83;;;;;;;17.83;78.64;99463.50;4929107;28;20130;-84
2023/08/28 05:50:44;;;;;;;2.75;1.83;;;;;;;17.81;78.50;99457.47;4907597;29;20056;-84
2023/08/28 05:53:11;;;;;;;3.20;2.15;;;;;;;17.81;78.74;99454.78;4920901;28;20083;-84
2023/08/28 05:55:38;;;;;;;4.43;1.95;;;;;;;17.79;78.29;99454.97;4936693;28;20059;-84
2023/08/28 05:58:05;;;;;;;6.32;1.95;;;;;;;17.79;78.16;99458.50;4950376;28;20510;-84
2023/08/28 06:00:32;;;;;;;4.05;1.75;;;;;;;17.78;78.38;99453.28;4922729;28;20050;-84
2023/08/28 06:02:59;;;;;;;3.70;2.28;;;;;;;17.79;78.32;99446.91;4920654;28;20059;-84
2023/08/28 06:05:27;;;;;;;3.47;1.90;;;;;;;17.77;78.06;99446.25;4936556;28;20056;-83
2023/08/28 06:07:54;;;;;;;3.17;2.00;;;;;;;17.73;77.72;99439.59;4922996;28;20639;-84
2023/08/28 06:10:21;;;;;;;5.30;1.98;;;;;;;17.76;77.59;99449.97;4949298;28;20047;-84
2023/08/28 06:12:49;;;;;;;4.35;1.70;;;;;;;17.74;76.15;99446.66;4926208;28;20499;-84
2023/08/28 06:15:21;;;;;;;2.05;1.55;;;;;;;17.70;75.70;99435.44;4942250;28;20079;-84
2023/08/28 06:17:53;;;;;;;5.20;1.70;;;;;;;17.68;74.77;99436.66;4935579;28;20701;-84
2023/08/28 06:20:22;;;;;;;3.72;1.60;;;;;;;17.61;74.51;99439.28;4909885;28;20055;-84
2023/08/28 06:22:49;;;;;;;2.70;1.60;;;;;;;17.63;74.21;99439.94;4912308;29;20748;-84
2023/08/28 06:25:16;;;;;;;3.15;1.42;;;;;;;17.65;74.23;99431.69;4953571;28;20058;-84
2023/08/28 06:27:44;;;;;;;2.67;1.25;;;;;;;17.65;73.95;99429.00;4917258;28;20050;-84
2023/08/28 06:30:11;;;;;;;4.70;2.08;;;;;;;17.64;73.48;99416.59;4907027;28;20055;-84
2023/08/28 06:32:38;;;;;;;1.88;1.25;;;;;;;17.59;72.95;99417.16;4914644;28;20047;-84
2023/08/28 06:35:05;;;;;;;2.92;1.30;;;;;;;17.57;72.42;99419.22;4908007;28;20058;-84
2023/08/28 06:37:32;;;;;;;2.63;1.48;;;;;;;17.49;72.18;99413.97;4896801;29;20465;-83
2023/08/28 06:39:59;;;;;;;4.53;1.83;;;;;;;17.51;72.57;99411.94;4930306;28;20051;-84
2023/08/28 06:42:26;;;;;;;3.10;1.35;;;;;;;17.53;72.90;99407.22;4923866;28;20055;-84
2023/08/28 06:44:53;;;;;;;4.20;1.95;;;;;;;17.54;72.74;99415.06;4912927;28;20047;-83
2023/08/28 06:47:20;;;;;;;3.13;1.35;;;;;;;17.56;72.75;99406.81;4938083;28;20530;-84
2023/08/28 06:49:47;;;;;;;5.65;1.70;;;;;;;17.57;72.92;99392.38;4943771;28;20115;-84
2023/08/28 06:52:13;;;;;;;4.28;1.58;;;;;;;17.56;73.24;99386.16;4954950;28;20460;-84
2023/08/28 06:54:40;;;;;;;6.00;2.10;;;;;;;17.57;73.17;99373.56;4908668;28;20054;-83
2023/08/28 06:57:18;;;;;;;4.22;1.40;;;;;;;17.53;73.68;99369.63;4913535;28;20139;-84
2023/08/28 06:59:44;;;;;;;1.73;1.55;;;;;;;17.56;73.75;99377.28;4916129;28;20142;-84
2023/08/28 07:02:11;;;;;;;3.70;1.60;;;;;;;17.58;74.23;99386.00;4908710;28;20048;-83
2023/08/28 07:04:38;;;;;;;2.58;1.40;;;;;;;17.60;74.73;99377.72;4927686;28;20051;-83
2023/08/28 07:07:05;;;;;;;2.83;1.48;;;;;;;17.63;74.65;99386.25;4937548;28;20043;-83
2023/08/28 07:09:32;;;;;;;3.47;1.70;;;;;;;17.64;75.26;99382.53;4934011;28;20409;-84
2023/08/28 07:11:59;;;;;;;3.65;1.88;;;;;;;17.65;75.23;99375.28;4929872;28;20051;-84
2023/08/28 07:14:26;;;;;;;6.20;1.77;;;;;;;17.68;75.04;99381.13;4923115;28;20047;-83
2023/08/28 07:16:53;;;;;;;4.18;1.70;;;;;;;17.70;75.29;99375.53;4925275;28;20420;-84
2023/08/28 07:19:19;;;;;;;2.55;1.50;;;;;;;17.68;74.61;99370.38;4891523;28;21404;-84
2023/08/28 07:21:46;;;;;;;2.08;1.52;;;;;;;17.69;74.42;99371.22;4925422;28;20099;-84
2023/08/28 07:24:13;;;;;;;1.58;1.48;;;;;;;17.68;74.22;99373.06;4917949;28;20055;-84
2023/08/28 07:26:40;;;;;;;5.18;1.55;;;;;;;17.71;73.87;99371.84;4923217;28;20384;-83
2023/08/28 07:29:07;;;;;;;1.67;1.52;;;;;;;17.72;73.95;99363.59;4935558;28;20098;-84
2023/08/28 07:31:34;;;;;;;2.53;1.52;;;;;;;17.74;74.05;99361.53;4922878;28;20468;-84
2023/08/28 07:34:03;;;;;;;3.22;1.63;;;;;;;17.76;73.91;99372.94;4934812;28;20047;-85
2023/08/28 07:36:30;;;;;;;3.28;1.40;;;;;;;17.77;73.89;99363.84;4925905;28;20050;-84
2023/08/28 07:38:57;;;;;;;3.92;1.85;;;;;;;17.81;73.97;99361.63;4950927;28;20147;-84
2023/08/28 07:41:24;;;;;;;3.75;1.65;;;;;;;17.82;73.57;99379.41;4925281;28;20144;-84
2023/08/28 07:43:50;;;;;;;4.88;1.70;;;;;;;17.85;72.78;99386.25;4916978;29;20123;-84
2023/08/28 07:46:17;;;;;;;1.75;1.65;;;;;;;17.85;72.08;99397.00;4924733;28;20123;-84
2023/08/28 07:48:44;;;;;;;3.70;1.50;;;;;;;17.84;71.73;99406.09;4921507;28;20103;-84
2023/08/28 07:51:11;;;;;;;4.03;1.60;;;;;;;17.87;71.80;99411.06;4931809;28;20474;-84
2023/08/28 07:53:39;;;;;;;2.05;1.58;;;;;;;17.87;72.10;99401.13;4924435;28;20059;-84
2023/08/28 07:56:06;;;;;;;1.83;1.67;;;;;;;17.90;71.61;99413.34;4939472;28;20507;-84
2023/08/28 07:58:33;;;;;;;5.53;1.70;;;;;;;17.92;71.17;99411.31;4923086;28;20122;-84
2023/08/28 08:01:00;;;;;;;3.97;1.70;;;;;;;17.93;70.68;99399.53;4911689;28;20479;-84
2023/08/28 08:03:27;;;;;;;2.00;1.80;;;;;;;17.92;70.41;99389.81;4908888;29;20051;-84
2023/08/28 08:05:55;;;;;;;2.72;1.70;;;;;;;17.91;70.00;99380.09;4927508;28;20532;-84
2023/08/28 08:08:22;;;;;;;6.65;2.25;;;;;;;17.91;70.24;99372.03;4919718;28;20047;-84
2023/08/28 08:10:49;;;;;;;5.20;1.80;;;;;;;17.89;70.16;99369.56;4925504;28;20058;-84
2023/08/28 08:13:17;;;;;;;6.05;1.70;;;;;;;17.88;69.90;99378.63;4937988;28;20122;-84
2023/08/28 08:15:44;;;;;;;3.22;1.63;;;;;;;17.90;70.26;99389.19;4930614;28;20395;-84
2023/08/28 08:18:11;;;;;;;3.58;1.50;;;;;;;17.92;70.91;99393.34;4922269;28;20128;-84
2023/08/28 08:20:37;;;;;;;4.18;1.95;;;;;;;17.94;71.54;99387.78;4911277;28;20075;-84
2023/08/28 08:23:04;;;;;;;5.75;2.28;;;;;;;17.96;71.56;99385.69;4934376;28;20118;-87
2023/08/28 08:25:33;;;;;;;2.80;1.60;;;;;;;17.96;70.35;99408.06;4934711;28;20047;-87
2023/08/28 08:28:02;;;;;;;2.05;1.55;;;;;;;17.99;70.33;99422.94;4921467;29;20527;-88
2023/08/28 08:30:29;;;;;;;2.15;1.63;;;;;;;18.01;70.85;99437.00;4926039;28;20078;-87
2023/08/28 08:32:56;;;;;;;3.75;2.05;;;;;;;18.03;71.19;99431.44;4907170;28;20134;-87
2023/08/28 08:35:24;;;;;;;1.85;1.60;;;;;;;18.04;70.91;99420.50;4920466;28;20054;-88
2023/08/28 08:37:52;;;;;;;2.53;2.03;;;;;;;18.04;70.25;99425.88;4926273;28;20132;-88
2023/08/28 08:40:25;;;;;;;3.90;2.15;;;;;;;18.00;68.53;99420.06;4952910;28;20052;-88
2023/08/28 08:42:53;;;;;;;2.92;2.20;;;;;;;17.99;69.08;99409.50;4940962;28;20059;-88
2023/08/28 08:45:30;;;;;;;3.35;1.70;;;;;;;17.97;68.46;99420.44;4932172;28;20051;-88
2023/08/28 08:47:58;;;;;;;3.05;1.60;;;;;;;17.99;69.13;99433.69;4893186;29;20099;-87
2023/08/28 08:50:26;;;;;;;5.82;1.60;;;;;;;18.00;68.36;99446.09;4950862;28;20043;-87
2023/08/28 08:52:56;;;;;;;1.88;1.52;;;;;;;17.99;67.60;99441.75;4932571;28;20496;-88
2023/08/28 08:55:27;;;;;;;1.63;1.45;;;;;;;17.98;68.21;99450.81;4910299;28;20451;-88
2023/08/28 08:57:58;;;;;;;2.20;1.50;;;;;;;17.94;67.34;99454.94;4934447;28;20047;-88
2023/08/28 09:00:26;;;;;;;3.65;1.38;;;;;;;17.96;67.11;99464.47;4938435;28;20075;-88
2023/08/28 09:02:53;;;;;;;2.17;1.25;;;;;;;17.98;67.36;99467.75;4949668;28;20667;-88
2023/08/28 09:05:20;;;;;;;4.07;1.65;;;;;;;17.99;66.54;99460.56;4940661;28;20055;-88
2023/08/28 09:07:47;;;;;;;4.50;1.45;;;;;;;18.03;66.76;99452.94;4910287;28;20684;-88
2023/08/28 09:10:14;;;;;;;3.22;1.58;;;;;;;18.01;67.12;99466.53;4925890;28;20407;-87
2023/08/28 09:12:42;;;;;;;2.17;1.48;;;;;;;18.03;66.71;99455.63;4909865;28;20641;-88
2023/08/28 09:15:10;;;;;;;6.10;1.50;;;;;;;18.06;66.32;99465.97;4913394;28;20067;-87
2023/08/28 09:17:39;;;;;;;4.00;1.20;;;;;;;18.06;66.26;99468.66;4925072;28;20654;-88
2023/08/28 09:20:14;;;;;;;2.17;1.30;;;;;;;18.07;65.86;99475.72;4908974;28;20056;-87
2023/08/28 09:22:49;;;;;;;2.50;1.67;;;;;;;18.06;65.60;99465.97;4936208;28;20043;-87
2023/08/28 09:25:21;;;;;;;2.58;1.45;;;;;;;18.09;66.29;99461.06;4910016;28;20055;-88
2023/08/28 09:27:49;;;;;;;3.20;1.20;;;;;;;18.10;66.02;99454.66;4953525;28;20044;-88
2023/08/28 09:30:36;;;;;;;2.97;1.52;;;;;;;17.99;65.18;99456.00;4886033;28;20142;-88
2023/08/28 09:33:05;;;;;;;2.75;1.33;;;;;;;18.04;66.30;99455.44;4939480;28;20058;-88
2023/08/28 09:35:40;;;;;;;1.88;1.42;;;;;;;17.96;64.69;99452.84;4910873;28;20043;-88
2023/08/28 09:38:08;;;;;;;2.45;1.50;;;;;;;18.05;65.81;99453.56;4936017;28;20589;-87
2023/08/28 09:40:37;;;;;;;1.75;1.20;;;;;;;18.10;65.85;99453.81;4922797;28;20071;-88
2023/08/28 09:43:15;;;;;;;3.70;1.50;;;;;;;18.11;65.58;99459.00;4898392;28;20492;-87
2023/08/28 09:45:43;;;;;;;2.50;1.33;;;;;;;18.18;66.15;99462.56;4912792;28;20444;-88
2023/08/28 09:48:11;;;;;;;2.40;1.48;;;;;;;18.23;65.40;99462.00;4904221;28;20044;-87
2023/08/28 09:50:40;;;;;;;2.60;1.30;;;;;;;18.23;65.56;99456.63;4935298;28;20408;-88
2023/08/28 09:53:14;;;;;;;1.85;1.25;;;;;;;18.23;65.13;99452.06;4948117;28;20047;-87
2023/08/28 09:55:47;;;;;;;3.85;1.40;;;;;;;18.28;65.28;99446.09;4923091;29;20074;-87
2023/08/28 09:58:14;;;;;;;4.82;1.75;;;;;;;18.23;64.40;99433.25;4941402;28;20838;-88
2023/08/28 10:00:42;;;;;;;2.78;1.48;;;;;;;18.23;65.05;99432.44;4945323;28;20043;-87
2023/08/28 10:03:11;;;;;;;2.85;1.45;;;;;;;18.25;65.66;99422.31;4911116;28;20058;-88
2023/08/28 10:05:42;;;;;;;4.68;1.35;;;;;;;18.23;65.41;99416.31;4934399;28;20046;-83
2023/08/28 10:08:10;;;;;;;2.30;1.38;;;;;;;18.21;65.11;99424.53;4929781;28;20050;-83
2023/08/28 10:10:40;;;;;;;1.70;1.25;;;;;;;18.27;64.93;99424.78;4941505;28;20053;-82
2023/08/28 10:13:13;;;;;;;1.60;1.30;;;;;;;18.22;64.22;99417.34;4922491;28;20127;-83
2023/08/28 10:15:49;;;;;;;1.48;0.93;;;;;;;18.21;64.03;99411.09;4906960;29;20122;-83
2023/08/28 10:18:30;;;;;;;2.15;1.30;;;;;;;18.28;64.65;99411.16;4912280;28;20499;-83
2023/08/28 10:20:58;;;;;;;1.45;1.27;;;;;;;18.29;64.05;99396.69;4929555;28;20054;-82
2023/08/28 10:23:25;;;;;;;1.70;1.35;;;;;;;18.30;63.59;99401.06;4945443;28;20117;-83
2023/08/28 10:25:53;;;;;;;3.55;1.35;;;;;;;18.31;62.83;99399.19;4895987;29;20048;-83
2023/08/28 10:28:21;;;;;;;2.70;0.90;;;;;;;18.32;62.67;99399.00;4929523;28;20051;-82
2023/08/28 10:30:51;;;;;;;2.60;1.50;;;;;;;18.25;61.73;99394.63;4922447;29;20052;-82
2023/08/28 10:33:20;;;;;;;2.30;1.10;;;;;;;18.32;61.73;99388.25;4919473;28;20071;-82
2023/08/28 10:35:54;;;;;;;2.97;1.08;;;;;;;18.27;60.84;99398.78;4922242;28;20103;-82
2023/08/28 10:38:22;;;;;;;2.75;1.38;;;;;;;18.34;61.68;99388.03;4939199;28;20122;-82
2023/08/28 10:40:51;;;;;;;2.95;0.90;;;;;;;18.31;60.85;99383.88;4940407;28;20043;-82
2023/08/28 10:43:21;;;;;;;2.33;1.00;;;;;;;18.37;60.46;99374.25;4938358;28;20063;-82
2023/08/28 10:45:49;;;;;;;1.10;1.00;;;;;;;18.39;61.10;99378.38;4903444;28;20510;-82
2023/08/28 10:48:16;;;;;;;5.35;1.10;;;;;;;18.34;60.71;99378.16;4918759;28;20039;-82
2023/08/28 10:50:44;;;;;;;0.95;0.95;;;;;;;18.40;61.53;99371.97;4935844;28;20052;-82
2023/08/28 10:53:15;;;;;;;1.77;1.10;;;;;;;18.30;59.58;99362.59;4923945;28;20106;-83
2023/08/28 10:56:00;;;;;;;2.45;1.08;;;;;;;18.31;59.71;99358.88;4946285;28;20051;-82
2023/08/28 10:58:31;;;;;;;1.83;1.08;;;;;;;18.30;59.28;99347.31;4910155;28;20057;-83
2023/08/28 11:01:11;;;;;;;3.03;1.23;;;;;;;18.26;58.91;99347.88;4950450;28;20404;-83
2023/08/28 11:03:50;;;;;;;1.30;1.00;;;;;;;18.33;60.58;99346.06;4904732;29;20050;-83
2023/08/28 11:06:35;;;;;;;4.70;1.05;;;;;;;18.31;58.14;99340.88;4906103;28;20864;-84
2023/08/28 11:09:27;;;;;;;0.80;0.70;;;;;;;18.20;57.13;99336.91;4940929;28;20043;-83
2023/08/28 11:11:57;;;;;;;1.30;0.70;;;;;;;18.35;57.98;99330.59;4940973;28;20546;-83
2023/08/28 11:14:25;;;;;;;3.15;0.85;;;;;;;18.37;57.71;99323.16;4921154;28;20047;-84
2023/08/28 11:17:04;;;;;;;1.15;0.85;;;;;;;18.29;57.72;99331.38;4938479;28;20043;-83
2023/08/28 11:19:31;;;;;;;1.23;0.70;;;;;;;18.36;58.17;99324.16;4913941;28;20043;-83
2023/08/28 11:21:58;;;;;;;0.70;0.60;;;;;;;18.42;58.54;99315.34;4936573;28;20063;-83
2023/08/28 11:24:26;;;;;;;1.48;0.90;;;;;;;18.36;55.83;99316.94;4901264;28;20043;-83
2023/08/28 11:26:52;;;;;;;1.50;0.82;;;;;;;18.42;56.70;99312.63;4925650;28;20583;-83
2023/08/28 11:29:26;;;;;;;1.20;0.70;;;;;;;18.46;55.92;99311.19;4926161;28;20466;-83
2023/08/28 11:31:53;;;;;;;1.30;0.90;;;;;;;18.51;56.40;99315.97;4947237;28;20659;-82
2023/08/28 11:34:20;;;;;;;0.82;0.82;;;;;;;18.57;57.15;99313.34;4919939;28;20051;-82
2023/08/28 11:36:47;;;;;;;1.83;0.80;;;;;;;18.68;56.81;99309.22;4908574;28;20511;-82
2023/08/28 11:39:23;;;;;;;1.40;0.73;;;;;;;18.70;55.27;99315.25;4924072;28;20064;-82
2023/08/28 11:41:50;;;;;;;1.15;0.70;;;;;;;18.79;56.56;99322.13;4927130;28;20130;-83